Time;durP1;ratioP1;P1;durP2;ratioP2;P2;SDS_P1;SDS_P2;PMS_P1;PMS_P2;Temp;Humidity;BMP_temperature;BMP_pressure;BME280_temperature;BME280_humidity;BME280_pressure;Samples;Min_cycle;Max_cycle;Signal;HPM_P1;HPM_P2
2022/10/20 00:01:22;;;;;;;17.15;9.20;;;;;;;17.96;96.12;100666.16;5048777;28;19927;-66
2022/10/20 00:03:50;;;;;;;15.18;9.15;;;;;;;17.98;95.69;100683.31;5073340;28;20048;-66
2022/10/20 00:06:20;;;;;;;23.20;10.00;;;;;;;17.84;96.38;100688.56;5090714;28;20054;-66
2022/10/20 00:08:48;;;;;;;21.63;10.10;;;;;;;17.92;96.47;100670.81;5051629;28;20041;-66
2022/10/20 00:11:17;;;;;;;18.52;9.95;;;;;;;17.96;95.92;100668.13;5081438;28;20048;-66
2022/10/20 00:13:46;;;;;;;15.47;9.50;;;;;;;17.91;95.36;100669.22;5091544;28;20052;-67
2022/10/20 00:16:14;;;;;;;17.27;9.45;;;;;;;17.74;96.44;100664.06;5093056;28;20055;-67
2022/10/20 00:18:42;;;;;;;23.95;9.82;;;;;;;17.79;97.01;100665.75;5076787;28;20407;-67
2022/10/20 00:21:13;;;;;;;22.10;9.80;;;;;;;17.69;97.33;100658.75;5081788;28;20040;-67
2022/10/20 00:23:40;;;;;;;14.93;9.82;;;;;;;17.72;98.12;100666.38;5081193;28;20048;-67
2022/10/20 00:26:13;;;;;;;16.02;8.80;;;;;;;17.74;97.59;100658.47;5085245;28;20063;-67
2022/10/20 00:28:41;;;;;;;15.52;9.65;;;;;;;17.64;98.44;100653.44;5082540;28;20562;-67
2022/10/20 00:31:08;;;;;;;13.90;9.18;;;;;;;17.87;97.21;100651.59;5083843;28;20067;-66
2022/10/20 00:33:35;;;;;;;13.88;8.80;;;;;;;17.88;96.66;100656.03;5086316;28;20048;-66
2022/10/20 00:36:05;;;;;;;13.13;8.77;;;;;;;17.89;96.43;100646.47;5091384;28;20519;-66
2022/10/20 00:38:33;;;;;;;20.33;9.38;;;;;;;18.01;96.12;100650.31;5081708;28;20352;-66
2022/10/20 00:41:04;;;;;;;16.52;9.05;;;;;;;18.01;95.51;100645.53;5088948;28;20061;-67
2022/10/20 00:43:48;;;;;;;14.90;9.32;;;;;;;18.07;95.48;100648.84;5076838;28;20045;-66
2022/10/20 00:46:38;;;;;;;16.23;8.70;;;;;;;18.09;95.05;100649.28;5087831;28;20047;-66
2022/10/20 00:49:18;;;;;;;15.40;9.07;;;;;;;18.02;95.24;100644.38;5086038;28;20633;-66
2022/10/20 00:51:46;;;;;;;17.55;8.88;;;;;;;18.12;94.52;100641.00;5092194;28;20048;-66
2022/10/20 00:54:16;;;;;;;15.55;8.75;;;;;;;18.02;94.94;100640.78;5072170;28;20048;-66
2022/10/20 00:56:46;;;;;;;15.05;9.15;;;;;;;18.05;95.26;100645.59;5084544;28;20490;-66
2022/10/20 00:59:16;;;;;;;17.80;8.75;;;;;;;18.09;94.58;100646.50;5093139;28;20044;-67
2022/10/20 01:01:44;;;;;;;21.73;9.82;;;;;;;18.03;94.94;100636.84;5088938;28;20059;-66
2022/10/20 01:04:12;;;;;;;16.63;9.43;;;;;;;17.97;95.51;100628.72;5081881;28;20587;-66
2022/10/20 01:06:39;;;;;;;16.77;8.70;;;;;;;17.96;95.27;100629.91;5080765;28;20451;-66
2022/10/20 01:09:07;;;;;;;14.88;9.25;;;;;;;17.98;95.32;100630.38;5082685;28;20071;-66
2022/10/20 01:11:43;;;;;;;22.05;9.15;;;;;;;18.10;94.56;100634.19;5090268;28;20048;-66
2022/10/20 01:14:13;;;;;;;15.70;8.85;;;;;;;18.05;94.65;100637.25;5090348;28;20055;-67
2022/10/20 01:17:02;;;;;;;14.30;8.50;;;;;;;17.92;95.48;100634.59;5090918;28;20052;-67
2022/10/20 01:19:50;;;;;;;15.82;8.95;;;;;;;18.01;95.20;100641.97;5097506;28;20044;-67
2022/10/20 01:22:32;;;;;;;15.30;8.82;;;;;;;17.99;94.66;100643.09;5091683;28;20040;-67
2022/10/20 01:25:06;;;;;;;16.25;9.40;;;;;;;17.86;95.21;100633.28;5082699;28;20048;-67
2022/10/20 01:27:37;;;;;;;14.70;9.25;;;;;;;17.98;94.92;100644.28;5077798;28;20051;-67
2022/10/20 01:30:23;;;;;;;15.77;8.60;;;;;;;17.95;95.58;100653.41;5086634;28;20044;-67
2022/10/20 01:33:02;;;;;;;14.27;8.65;;;;;;;18.04;95.03;100650.41;5092914;28;20054;-66
2022/10/20 01:35:38;;;;;;;13.52;8.80;;;;;;;17.94;94.83;100653.72;5094659;28;20063;-66
2022/10/20 01:38:13;;;;;;;24.98;10.02;;;;;;;17.93;95.14;100647.38;5081265;28;20498;-65
2022/10/20 01:40:46;;;;;;;20.13;9.20;;;;;;;17.69;96.05;100653.19;5093873;28;20043;-65
2022/10/20 01:43:18;;;;;;;18.40;9.00;;;;;;;17.77;96.18;100668.91;5086602;28;20056;-67
2022/10/20 01:45:47;;;;;;;22.17;9.30;;;;;;;17.61;96.89;100673.69;5073757;28;20052;-67
2022/10/20 01:48:17;;;;;;;17.45;9.25;;;;;;;17.77;96.78;100696.75;5073791;28;20052;-66
2022/10/20 01:50:44;;;;;;;;;;;;;;;17.50;97.86;100688.53;5082519;28;20055;-66
2022/10/20 01:53:12;;;;;;;16.85;8.90;;;;;;;17.58;98.17;100687.50;5084769;28;19920;-67
2022/10/20 01:55:39;;;;;;;18.35;9.15;;;;;;;17.66;98.69;100694.91;5092447;28;20140;-66
2022/10/20 01:58:42;;;;;;;25.27;9.23;;;;;;;17.64;98.28;100695.22;5097198;28;20052;-67
2022/10/20 02:01:48;;;;;;;13.45;9.02;;;;;;;17.70;97.52;100677.09;5065510;28;20522;-66
2022/10/20 02:04:21;;;;;;;17.58;8.60;;;;;;;17.80;97.43;100662.59;5081700;28;20052;-66
2022/10/20 02:07:03;;;;;;;16.58;8.95;;;;;;;17.75;97.06;100654.50;5091048;28;20601;-66
2022/10/20 02:09:47;;;;;;;15.48;8.90;;;;;;;17.81;96.83;100636.34;5093415;28;20072;-66
2022/10/20 02:12:22;;;;;;;17.90;8.98;;;;;;;17.81;97.19;100624.41;5074459;28;20056;-66
2022/10/20 02:14:50;;;;;;;14.18;8.50;;;;;;;17.90;97.60;100611.06;5084138;28;20057;-67
2022/10/20 02:17:18;;;;;;;22.20;8.32;;;;;;;17.92;98.54;100609.50;5078566;28;20044;-67
2022/10/20 02:19:48;;;;;;;19.88;8.48;;;;;;;18.18;98.40;100594.13;5083317;28;20075;-66
2022/10/20 02:22:15;;;;;;;19.93;7.50;;;;;;;18.22;98.87;100581.06;5090876;28;20052;-67
2022/10/20 02:24:43;;;;;;;15.60;6.93;;;;;;;18.29;99.86;100575.66;5090416;28;20412;-67
2022/10/20 02:27:14;;;;;;;18.67;6.97;;;;;;;18.41;99.48;100569.94;5089957;28;20063;-66
2022/10/20 02:29:46;;;;;;;16.52;6.68;;;;;;;18.32;98.94;100564.56;5081793;28;20097;-66
2022/10/20 02:32:14;;;;;;;19.98;6.60;;;;;;;18.29;97.97;100548.53;5077822;28;20083;-65
2022/10/20 02:34:42;;;;;;;21.83;6.85;;;;;;;18.37;97.35;100555.06;5087022;28;20050;-67
2022/10/20 02:37:09;;;;;;;18.98;6.60;;;;;;;18.47;98.57;100552.53;5091387;28;20531;-66
2022/10/20 02:39:36;;;;;;;20.23;6.03;;;;;;;18.46;97.37;100514.63;5096399;28;20056;-66
2022/10/20 02:42:05;;;;;;;18.77;5.90;;;;;;;18.35;96.17;100498.84;5089310;28;20052;-66
2022/10/20 02:44:32;;;;;;;17.52;5.70;;;;;;;18.35;96.95;100496.88;5075902;28;20048;-67
2022/10/20 02:47:00;;;;;;;16.00;5.65;;;;;;;18.30;95.92;100499.97;5090766;28;20058;-66
2022/10/20 02:49:27;;;;;;;20.67;6.22;;;;;;;18.46;94.73;100511.06;5093368;28;20044;-67
2022/10/20 02:51:54;;;;;;;14.48;5.07;;;;;;;18.61;95.68;100513.72;5087843;28;20475;-66
2022/10/20 02:54:21;;;;;;;17.55;5.80;;;;;;;18.56;93.65;100524.38;5090610;28;20059;-66
2022/10/20 02:56:49;;;;;;;18.92;5.18;;;;;;;18.73;92.99;100529.47;5086929;28;20048;-65
2022/10/20 02:59:16;;;;;;;23.88;5.90;;;;;;;18.89;91.04;100541.31;5095110;28;20036;-67
2022/10/20 03:01:43;;;;;;;14.30;4.88;;;;;;;18.88;91.79;100548.88;5093652;28;20040;-66
2022/10/20 03:04:11;;;;;;;18.55;5.38;;;;;;;18.85;90.59;100551.59;5078172;28;20059;-67
2022/10/20 03:06:40;;;;;;;16.50;5.50;;;;;;;19.03;90.59;100542.34;5093581;28;20040;-66
2022/10/20 03:09:07;;;;;;;13.30;5.20;;;;;;;18.97;90.14;100543.84;5087847;28;20052;-66
2022/10/20 03:11:34;;;;;;;15.18;5.00;;;;;;;18.88;90.53;100545.28;5089814;28;20056;-66
2022/10/20 03:14:02;;;;;;;17.52;5.15;;;;;;;18.94;90.09;100543.78;5093355;28;20147;-66
2022/10/20 03:16:29;;;;;;;18.38;5.45;;;;;;;19.12;90.29;100530.91;5077018;28;20099;-66
2022/10/20 03:18:56;;;;;;;25.10;5.70;;;;;;;19.02;90.06;100531.56;5094263;28;20063;-67
2022/10/20 03:21:30;;;;;;;20.75;5.35;;;;;;;19.51;88.00;100515.56;5065473;28;20056;-65
2022/10/20 03:23:57;;;;;;;18.20;5.43;;;;;;;19.20;88.37;100510.28;5078614;28;20055;-66
2022/10/20 03:26:25;;;;;;;12.38;5.03;;;;;;;19.06;88.98;100512.88;5084374;28;20050;-66
2022/10/20 03:28:52;;;;;;;15.82;5.10;;;;;;;19.12;88.80;100536.50;5090893;28;20059;-66
2022/10/20 03:31:19;;;;;;;14.02;5.03;;;;;;;19.20;88.54;100546.59;5084413;28;20048;-66
2022/10/20 03:33:46;;;;;;;17.02;5.00;;;;;;;19.30;87.48;100543.19;5086952;28;20050;-66
2022/10/20 03:36:14;;;;;;;12.60;4.72;;;;;;;19.23;88.04;100545.06;5085866;28;20078;-66
2022/10/20 03:38:42;;;;;;;19.00;5.18;;;;;;;19.15;87.77;100540.50;5087469;28;20404;-66
2022/10/20 03:41:10;;;;;;;13.52;4.82;;;;;;;19.03;88.91;100535.97;5067214;28;20071;-66
2022/10/20 03:43:38;;;;;;;15.70;4.65;;;;;;;19.11;89.22;100548.06;5089116;28;20063;-68
2022/10/20 03:46:07;;;;;;;18.15;5.30;;;;;;;19.19;88.65;100564.53;5085006;28;20408;-67
2022/10/20 03:48:35;;;;;;;14.60;4.68;;;;;;;19.24;88.09;100564.22;5089867;28;20107;-66
2022/10/20 03:51:04;;;;;;;14.57;5.20;;;;;;;19.15;88.50;100574.84;5090469;28;20067;-65
2022/10/20 03:53:31;;;;;;;18.30;5.18;;;;;;;19.02;89.15;100574.22;5089849;28;20059;-66
2022/10/20 03:55:58;;;;;;;15.07;4.95;;;;;;;18.99;90.17;100585.34;5084648;28;20048;-66
2022/10/20 03:58:25;;;;;;;17.65;5.03;;;;;;;18.94;90.49;100589.25;5093864;28;20051;-67
2022/10/20 04:00:53;;;;;;;17.15;5.40;;;;;;;19.08;90.22;100599.84;5092533;28;20067;-67
2022/10/20 04:03:20;;;;;;;13.52;5.22;;;;;;;19.05;90.41;100595.84;5091190;28;20047;-69
2022/10/20 04:05:48;;;;;;;17.15;4.97;;;;;;;18.90;91.73;100581.97;5091295;28;20052;-65
2022/10/20 04:08:15;;;;;;;24.80;5.82;;;;;;;18.94;91.31;100569.72;5080199;28;20071;-66
2022/10/20 04:10:42;;;;;;;21.10;6.50;;;;;;;18.99;91.46;100574.16;5092302;28;20531;-67
2022/10/20 04:13:09;;;;;;;26.38;6.15;;;;;;;19.06;91.49;100535.19;5092964;28;20498;-65
2022/10/20 04:15:37;;;;;;;21.63;6.55;;;;;;;18.81;93.56;100548.75;5079436;28;20503;-66
2022/10/20 04:18:04;;;;;;;23.40;7.07;;;;;;;18.73;94.44;100547.00;5083878;28;20056;-66
2022/10/20 04:20:31;;;;;;;20.42;6.30;;;;;;;18.68;95.54;100557.69;5077571;28;20058;-66
2022/10/20 04:22:58;;;;;;;17.42;6.00;;;;;;;18.78;94.75;100551.47;5088091;28;20070;-66
2022/10/20 04:25:26;;;;;;;20.25;6.75;;;;;;;18.85;94.97;100554.38;5092189;28;20517;-67
2022/10/20 04:27:53;;;;;;;24.00;7.18;;;;;;;18.67;96.03;100550.50;5091579;28;20055;-65
2022/10/20 04:30:20;;;;;;;24.58;7.88;;;;;;;18.47;98.53;100557.28;5081646;28;20056;-66
2022/10/20 04:32:47;;;;;;;22.40;7.70;;;;;;;18.40;99.23;100566.34;5089786;28;20416;-67
2022/10/20 04:35:15;;;;;;;19.80;7.45;;;;;;;18.45;99.19;100579.97;5094201;28;20058;-65
2022/10/20 04:37:42;;;;;;;24.33;7.60;;;;;;;18.44;100.00;100583.94;5076356;28;20051;-67
2022/10/20 04:40:09;;;;;;;26.83;7.85;;;;;;;18.38;100.00;100576.19;5091612;28;20048;-67
2022/10/20 04:42:37;;;;;;;23.05;6.75;;;;;;;18.46;100.00;100576.00;5087281;28;20048;-67
2022/10/20 04:45:04;;;;;;;21.98;6.95;;;;;;;18.44;100.00;100564.41;5083038;28;20048;-67
2022/10/20 04:47:32;;;;;;;22.38;7.18;;;;;;;18.43;100.00;100573.16;5092545;28;20506;-67
2022/10/20 04:50:00;;;;;;;19.92;7.20;;;;;;;18.47;100.00;100574.84;5093574;28;20075;-66
2022/10/20 04:52:28;;;;;;;19.33;6.65;;;;;;;18.43;100.00;100560.00;5082080;28;20052;-66
2022/10/20 04:54:58;;;;;;;21.17;7.07;;;;;;;18.37;100.00;100558.69;5092727;28;20051;-65
2022/10/20 04:57:26;;;;;;;21.25;6.70;;;;;;;18.38;100.00;100549.13;5072087;28;20051;-66
2022/10/20 04:59:53;;;;;;;21.48;6.82;;;;;;;18.33;100.00;100546.63;5080899;28;20059;-65
2022/10/20 05:02:20;;;;;;;22.60;6.78;;;;;;;18.38;100.00;100560.28;5062217;28;20063;-67
2022/10/20 05:04:47;;;;;;;20.13;9.07;;;;;;;18.32;100.00;100558.16;5080389;28;20048;-66
2022/10/20 05:07:15;;;;;;;17.15;9.50;;;;;;;18.32;100.00;100563.75;5088820;28;20052;-65
2022/10/20 05:09:42;;;;;;;26.13;8.40;;;;;;;18.40;100.00;100571.06;5092553;28;20482;-66
2022/10/20 05:12:10;;;;;;;22.10;8.20;;;;;;;18.42;100.00;100583.50;5094212;28;20503;-66
2022/10/20 05:14:37;;;;;;;22.73;7.72;;;;;;;18.26;100.00;100588.31;5090162;28;20122;-66
2022/10/20 05:17:04;;;;;;;15.93;6.45;;;;;;;18.34;100.00;100576.13;5090260;28;20658;-65
2022/10/20 05:19:36;;;;;;;20.92;10.70;;;;;;;18.30;100.00;100571.66;5090681;28;20502;-67
2022/10/20 05:22:03;;;;;;;22.42;11.32;;;;;;;18.42;100.00;100572.34;5093763;28;20036;-67
2022/10/20 05:24:30;;;;;;;21.85;9.60;;;;;;;18.42;100.00;100591.88;5075766;28;20052;-66
2022/10/20 05:26:57;;;;;;;17.88;7.38;;;;;;;18.38;100.00;100595.72;5086631;28;20044;-66
2022/10/20 05:29:25;;;;;;;15.15;6.32;;;;;;;18.45;100.00;100593.09;5083376;28;20550;-65
2022/10/20 05:31:52;;;;;;;21.60;6.35;;;;;;;18.48;99.59;100600.75;5086149;28;20067;-66
2022/10/20 05:34:19;;;;;;;18.05;6.25;;;;;;;18.39;100.00;100597.34;5082089;28;20044;-65
2022/10/20 05:36:46;;;;;;;17.70;7.53;;;;;;;18.45;99.87;100598.69;5093193;28;20056;-67
2022/10/20 05:39:14;;;;;;;26.23;10.00;;;;;;;18.48;98.96;100597.97;5092051;28;20102;-67
2022/10/20 05:41:41;;;;;;;24.90;13.98;;;;;;;18.56;98.60;100596.91;5093569;28;20379;-67
2022/10/20 05:44:11;;;;;;;17.40;8.38;;;;;;;18.43;98.01;100590.69;5092576;28;20056;-66
2022/10/20 05:46:41;;;;;;;15.80;7.38;;;;;;;18.44;97.79;100591.50;5073214;28;20079;-66
2022/10/20 05:49:12;;;;;;;14.10;6.70;;;;;;;18.30;97.65;100585.59;5092552;28;20067;-67
2022/10/20 05:51:40;;;;;;;23.25;10.30;;;;;;;18.30;97.88;100578.06;5093430;28;20044;-66
2022/10/20 05:54:10;;;;;;;22.95;13.60;;;;;;;18.33;97.46;100582.06;5092366;28;20508;-66
2022/10/20 05:56:38;;;;;;;37.40;21.17;;;;;;;18.44;96.53;100575.59;5092775;28;20147;-66
2022/10/20 05:59:05;;;;;;;21.38;8.25;;;;;;;18.32;96.14;100572.13;5097541;28;20048;-66
2022/10/20 06:01:46;;;;;;;15.10;5.70;;;;;;;18.25;96.43;100567.22;5070594;28;20151;-66
2022/10/20 06:04:16;;;;;;;15.30;5.07;;;;;;;18.34;96.14;100547.44;5075343;28;20064;-66
2022/10/20 06:06:44;;;;;;;11.15;5.07;;;;;;;18.34;96.15;100522.34;5089737;28;20694;-67
2022/10/20 06:09:11;;;;;;;14.80;4.32;;;;;;;18.20;95.53;100510.94;5094619;28;20055;-67
2022/10/20 06:11:39;;;;;;;12.63;4.20;;;;;;;18.12;95.78;100479.31;5093715;28;20066;-67
2022/10/20 06:14:07;;;;;;;14.50;4.75;;;;;;;17.87;96.25;100448.19;5088813;28;20044;-67
2022/10/20 06:16:35;;;;;;;18.80;4.85;;;;;;;17.82;97.91;100456.03;5087264;28;20122;-67
2022/10/20 06:19:02;;;;;;;12.63;5.47;;;;;;;17.84;98.37;100462.84;5095110;28;20519;-66
2022/10/20 06:21:32;;;;;;;20.17;5.63;;;;;;;17.69;99.76;100455.41;5096309;28;20056;-66
2022/10/20 06:24:00;;;;;;;45.55;30.80;;;;;;;17.74;99.49;100457.06;5089888;28;21357;-66
2022/10/20 06:26:31;;;;;;;27.92;12.15;;;;;;;17.69;100.00;100449.84;5100465;28;20533;-66
2022/10/20 06:28:59;;;;;;;18.92;5.95;;;;;;;17.62;99.95;100441.31;5085190;28;20044;-67
2022/10/20 06:31:32;;;;;;;13.98;4.50;;;;;;;17.69;99.35;100455.41;5086952;28;20056;-67
2022/10/20 06:34:00;;;;;;;20.70;5.75;;;;;;;17.62;100.00;100454.44;5088604;28;20055;-69
2022/10/20 06:36:27;;;;;;;22.95;5.35;;;;;;;17.65;100.00;100451.72;5089787;28;20052;-68
2022/10/20 06:38:58;;;;;;;18.00;5.95;;;;;;;17.71;100.00;100455.03;5067712;28;20055;-67
2022/10/20 06:41:25;;;;;;;;;;;;;;;17.81;100.00;100455.25;5095847;28;20063;-70
2022/10/20 06:43:57;;;;;;;16.40;6.72;;;;;;;17.81;100.00;100458.03;5090535;28;19927;-69
2022/10/20 06:46:31;;;;;;;17.27;5.57;;;;;;;17.88;100.00;100472.09;5086562;28;20052;-69
2022/10/20 06:49:00;;;;;;;21.23;6.03;;;;;;;17.92;100.00;100489.69;5094108;28;20044;-67
2022/10/20 06:51:27;;;;;;;18.55;5.85;;;;;;;17.92;100.00;100491.69;5092230;28;20055;-69
2022/10/20 06:53:55;;;;;;;20.48;6.25;;;;;;;17.89;100.00;100514.69;5085747;28;20052;-69
2022/10/20 06:56:24;;;;;;;16.63;5.97;;;;;;;18.03;100.00;100528.13;5090278;28;20048;-70
2022/10/20 06:58:54;;;;;;;16.05;5.85;;;;;;;18.10;100.00;100534.63;5083017;28;20047;-70
2022/10/20 07:01:32;;;;;;;24.55;6.65;;;;;;;18.06;99.75;100552.47;5086508;28;20048;-69
2022/10/20 07:04:04;;;;;;;14.57;5.60;;;;;;;18.13;98.58;100547.84;5089440;28;20392;-68
2022/10/20 07:06:36;;;;;;;13.93;6.10;;;;;;;18.12;97.98;100560.16;5091333;28;20074;-69
2022/10/20 07:09:07;;;;;;;16.30;6.05;;;;;;;18.13;98.23;100563.75;5094428;28;20051;-69
2022/10/20 07:11:34;;;;;;;16.02;5.72;;;;;;;18.09;97.34;100574.84;5095291;28;20044;-69
2022/10/20 07:14:03;;;;;;;13.52;5.40;;;;;;;18.26;97.02;100570.78;5081607;28;20055;-68
2022/10/20 07:16:32;;;;;;;13.52;5.28;;;;;;;18.36;96.64;100567.41;5090268;28;20040;-69
2022/10/20 07:19:00;;;;;;;15.37;5.33;;;;;;;18.10;96.33;100572.88;5093198;28;20493;-69
2022/10/20 07:21:29;;;;;;;21.30;5.20;;;;;;;18.05;96.57;100578.72;5059669;28;20067;-70
2022/10/20 07:24:04;;;;;;;13.93;5.00;;;;;;;17.99;97.03;100576.22;5093749;28;20657;-68
2022/10/20 07:26:34;;;;;;;17.13;5.70;;;;;;;17.91;97.03;100579.22;5076912;28;20052;-70
2022/10/20 07:29:03;;;;;;;16.23;6.32;;;;;;;17.99;97.34;100575.44;5091845;28;20051;-68
2022/10/20 07:31:35;;;;;;;30.77;20.73;;;;;;;18.10;96.44;100578.44;5090682;28;20048;-69
2022/10/20 07:34:04;;;;;;;103.80;17.05;;;;;;;18.12;96.25;100574.09;5093024;28;20067;-70
2022/10/20 07:36:48;;;;;;;60.78;21.48;;;;;;;18.26;95.74;100584.72;5087731;28;20040;-66
2022/10/20 07:39:15;;;;;;;37.40;16.65;;;;;;;18.33;94.90;100574.53;5088578;28;20491;-68
2022/10/20 07:41:44;;;;;;;22.90;8.13;;;;;;;18.25;94.45;100585.91;5087431;28;20542;-67
2022/10/20 07:44:12;;;;;;;12.98;5.55;;;;;;;18.30;94.43;100571.66;5082891;28;20379;-68
2022/10/20 07:46:39;;;;;;;16.77;6.13;;;;;;;18.29;94.17;100572.84;5087740;28;21871;-68
2022/10/20 07:49:08;;;;;;;22.65;5.90;;;;;;;18.17;93.77;100573.81;5089581;28;20040;-70
2022/10/20 07:51:55;;;;;;;15.38;5.43;;;;;;;18.18;94.07;100567.06;5081875;28;20048;-69
2022/10/20 07:54:23;;;;;;;14.52;6.15;;;;;;;18.33;93.33;100580.09;5094650;28;20070;-69
2022/10/20 07:56:50;;;;;;;16.60;5.80;;;;;;;18.25;93.65;100586.72;5087460;28;20055;-68
2022/10/20 07:59:17;;;;;;;21.17;5.50;;;;;;;18.28;93.31;100580.41;5082505;28;20036;-69
2022/10/20 08:01:45;;;;;;;31.30;9.45;;;;;;;18.27;93.20;100573.19;5085747;28;20056;-68
2022/10/20 08:04:12;;;;;;;17.42;5.68;;;;;;;18.24;93.27;100564.75;5095546;28;20055;-68
2022/10/20 08:06:40;;;;;;;20.80;8.40;;;;;;;18.32;93.57;100561.78;5091181;28;20052;-69
2022/10/20 08:09:07;;;;;;;11.60;6.18;;;;;;;18.25;93.42;100570.00;5070211;28;20049;-69
2022/10/20 08:11:34;;;;;;;12.10;5.13;;;;;;;18.34;93.54;100564.19;5089719;28;20048;-69
2022/10/20 08:14:02;;;;;;;17.92;5.57;;;;;;;18.31;93.62;100570.47;5046332;28;20063;-68
2022/10/20 08:16:30;;;;;;;15.10;5.85;;;;;;;18.65;92.46;100567.63;5090190;28;20048;-69
2022/10/20 08:19:03;;;;;;;16.75;7.70;;;;;;;18.57;92.72;100560.28;5086437;28;20404;-68
2022/10/20 08:21:44;;;;;;;21.65;9.20;;;;;;;18.59;92.93;100554.31;5078574;28;20100;-68
2022/10/20 08:24:11;;;;;;;17.98;6.53;;;;;;;18.81;91.68;100573.06;5081662;28;20047;-69
2022/10/20 08:26:38;;;;;;;12.98;5.20;;;;;;;18.74;91.24;100567.38;5091503;28;20048;-71
2022/10/20 08:29:05;;;;;;;14.52;5.47;;;;;;;18.71;92.18;100570.88;5093672;28;20051;-69
2022/10/20 08:31:32;;;;;;;13.63;5.32;;;;;;;18.79;91.39;100573.41;5086901;28;20043;-68
2022/10/20 08:34:00;;;;;;;15.75;4.80;;;;;;;18.70;91.80;100586.84;5088330;28;20096;-68
2022/10/20 08:36:27;;;;;;;20.02;6.97;;;;;;;18.68;91.28;100585.56;5090278;28;20047;-69
2022/10/20 08:38:55;;;;;;;15.38;5.43;;;;;;;18.78;90.92;100585.78;5093095;28;20040;-68
2022/10/20 08:41:25;;;;;;;16.13;6.25;;;;;;;18.93;90.36;100587.63;5092649;28;20060;-68
2022/10/20 08:43:56;;;;;;;17.00;6.65;;;;;;;19.12;89.65;100581.19;5085641;28;20044;-70
2022/10/20 08:46:37;;;;;;;18.52;7.20;;;;;;;19.06;88.95;100596.63;5085647;28;20044;-69
2022/10/20 08:49:09;;;;;;;17.15;6.40;;;;;;;19.07;89.43;100585.06;5089133;28;20056;-69
2022/10/20 08:51:37;;;;;;;15.65;5.97;;;;;;;19.09;88.50;100590.28;5086988;28;20044;-69
2022/10/20 08:54:11;;;;;;;16.70;6.35;;;;;;;19.08;88.35;100571.94;5089873;28;20495;-68
2022/10/20 08:56:38;;;;;;;14.90;5.13;;;;;;;18.75;89.03;100586.53;5092850;28;20055;-68
2022/10/20 08:59:28;;;;;;;13.13;5.00;;;;;;;18.86;89.30;100584.72;5091377;28;20036;-68
2022/10/20 09:01:56;;;;;;;18.87;4.53;;;;;;;18.86;89.59;100589.50;5087213;28;20343;-68
2022/10/20 09:04:36;;;;;;;13.13;5.05;;;;;;;18.90;89.06;100590.34;5084859;28;20083;-68
2022/10/20 09:07:12;;;;;;;16.25;4.68;;;;;;;18.92;89.93;100590.78;5086953;28;20043;-68
2022/10/20 09:09:40;;;;;;;11.43;4.03;;;;;;;19.01;89.11;100597.75;5080855;28;20126;-68
2022/10/20 09:12:11;;;;;;;9.52;3.97;;;;;;;19.09;88.60;100595.88;5091666;28;20063;-67
2022/10/20 09:14:38;;;;;;;14.57;4.45;;;;;;;19.03;88.98;100597.38;5083482;28;20048;-66
2022/10/20 09:17:13;;;;;;;13.93;3.70;;;;;;;18.97;89.42;100591.28;5090004;28;20474;-68
2022/10/20 09:19:45;;;;;;;10.85;4.00;;;;;;;19.16;88.22;100589.63;5087822;28;20075;-67
2022/10/20 09:22:13;;;;;;;17.27;3.55;;;;;;;19.11;88.68;100579.56;5087050;28;20048;-68
2022/10/20 09:24:41;;;;;;;9.23;3.65;;;;;;;19.02;88.77;100585.38;5082258;28;20036;-69
2022/10/20 09:27:28;;;;;;;9.30;3.33;;;;;;;19.16;88.04;100579.22;5087038;28;20053;-68
2022/10/20 09:29:56;;;;;;;14.43;4.05;;;;;;;19.08;88.66;100577.50;5082398;28;20410;-68
2022/10/20 09:32:41;;;;;;;11.13;3.17;;;;;;;19.17;87.66;100574.47;5084558;28;20056;-68
2022/10/20 09:35:14;;;;;;;11.57;3.40;;;;;;;19.34;86.90;100571.16;5093358;28;20048;-67
2022/10/20 09:37:43;;;;;;;11.68;2.90;;;;;;;19.40;86.35;100566.88;5091748;28;20451;-67
2022/10/20 09:40:14;;;;;;;7.63;3.17;;;;;;;19.53;85.47;100566.28;5091925;28;20032;-67
2022/10/20 09:42:51;;;;;;;11.95;3.45;;;;;;;19.59;84.82;100562.00;5092928;28;20783;-67
2022/10/20 09:45:30;;;;;;;9.23;2.92;;;;;;;19.43;85.32;100561.34;5088905;28;20052;-67
2022/10/20 09:48:02;;;;;;;12.88;3.55;;;;;;;19.58;85.12;100571.53;5091328;28;20490;-68
2022/10/20 09:50:38;;;;;;;12.15;3.22;;;;;;;19.40;84.77;100564.91;5094898;28;20055;-68
2022/10/20 09:53:16;;;;;;;12.65;3.53;;;;;;;19.60;85.12;100569.19;5096259;28;20052;-68
2022/10/20 09:55:46;;;;;;;10.60;3.20;;;;;;;19.51;84.13;100568.63;5086847;28;20070;-68
2022/10/20 09:58:20;;;;;;;12.23;3.23;;;;;;;19.94;84.70;100568.06;5089122;28;20055;-69
2022/10/20 10:00:56;;;;;;;9.30;3.05;;;;;;;19.97;82.88;100572.91;5085953;28;20044;-70
2022/10/20 10:03:23;;;;;;;13.45;3.58;;;;;;;20.06;82.35;100555.81;5100973;28;20059;-71
2022/10/20 10:05:58;;;;;;;8.48;3.20;;;;;;;20.01;81.87;100564.56;5094955;28;20507;-66
2022/10/20 10:08:43;;;;;;;8.00;2.97;;;;;;;19.99;81.71;100556.53;5094503;28;20043;-69
2022/10/20 10:11:16;;;;;;;9.25;2.92;;;;;;;20.15;81.16;100559.13;5109575;28;20056;-65
2022/10/20 10:13:50;;;;;;;9.23;3.13;;;;;;;20.17;80.65;100553.19;5112336;28;20403;-64
2022/10/20 10:16:20;;;;;;;15.73;3.72;;;;;;;20.14;80.04;100549.94;5102162;28;20055;-66
2022/10/20 10:19:01;;;;;;;13.10;2.83;;;;;;;20.08;78.96;100543.06;5088381;28;20044;-69
2022/10/20 10:21:29;;;;;;;10.73;2.88;;;;;;;20.26;79.20;100548.88;5089637;28;20078;-66
2022/10/20 10:24:00;;;;;;;11.95;3.13;;;;;;;20.25;78.65;100550.09;5092404;28;20051;-66
2022/10/20 10:26:41;;;;;;;23.92;3.85;;;;;;;20.33;78.08;100548.19;5096216;28;20434;-66
2022/10/20 10:29:26;;;;;;;32.25;4.43;;;;;;;20.49;78.26;100548.72;5092611;28;20043;-67
2022/10/20 10:31:59;;;;;;;8.90;2.80;;;;;;;20.60;76.86;100546.84;5090161;28;20371;-67
2022/10/20 10:34:54;;;;;;;13.32;3.15;;;;;;;20.88;75.72;100545.13;5089935;28;20114;-67
2022/10/20 10:37:22;;;;;;;8.18;2.65;;;;;;;21.04;74.82;100542.09;5089843;28;20051;-66
2022/10/20 10:39:49;;;;;;;11.98;2.63;;;;;;;20.99;73.77;100537.66;5091222;28;20055;-67
2022/10/20 10:42:30;;;;;;;8.23;3.65;;;;;;;21.18;71.86;100533.81;5091924;28;20052;-66
2022/10/20 10:45:29;;;;;;;9.95;3.20;;;;;;;20.91;72.08;100529.53;5066841;28;20044;-66
2022/10/20 10:48:15;;;;;;;13.27;4.18;;;;;;;21.11;73.16;100533.75;5092689;28;20056;-66
2022/10/20 10:50:59;;;;;;;7.28;3.42;;;;;;;21.16;71.95;100513.78;5085386;28;20040;-66
2022/10/20 10:54:17;;;;;;;10.98;3.70;;;;;;;21.32;70.65;100522.69;5095146;28;20127;-70
2022/10/20 10:56:56;;;;;;;9.50;3.70;;;;;;;21.30;72.26;100513.88;5074146;28;20048;-70
2022/10/20 10:59:33;;;;;;;9.40;4.72;;;;;;;21.18;72.32;100523.38;5096842;28;20056;-65
2022/10/20 11:02:32;;;;;;;15.27;3.60;;;;;;;21.30;71.90;100513.88;5091386;28;20056;-64
2022/10/20 11:05:15;;;;;;;14.43;4.85;;;;;;;21.40;71.11;100515.94;5090695;28;20059;-66
2022/10/20 11:07:53;;;;;;;12.20;5.35;;;;;;;21.68;70.00;100509.69;5090507;28;20066;-65
2022/10/20 11:10:32;;;;;;;10.90;5.47;;;;;;;21.62;68.90;100502.84;5090601;28;20132;-66
2022/10/20 11:13:10;;;;;;;12.07;5.82;;;;;;;21.67;69.95;100505.28;5091705;28;20063;-65
2022/10/20 11:16:04;;;;;;;14.68;5.38;;;;;;;21.57;68.81;100494.78;5096678;28;20052;-65
2022/10/20 11:18:53;;;;;;;8.27;4.03;;;;;;;21.66;69.33;100495.25;5079209;28;20048;-67
2022/10/20 11:21:39;;;;;;;8.20;4.20;;;;;;;21.40;69.38;100484.31;5090568;28;20434;-67
2022/10/20 11:24:28;;;;;;;17.27;7.50;;;;;;;21.34;68.67;100489.47;5089987;28;20403;-67
2022/10/20 11:27:01;;;;;;;11.18;5.45;;;;;;;21.25;68.00;100478.59;5092271;28;20055;-68
2022/10/20 11:29:48;;;;;;;13.30;4.72;;;;;;;21.31;68.40;100469.84;5096652;28;20422;-67
2022/10/20 11:32:19;;;;;;;11.10;5.53;;;;;;;21.60;67.95;100478.00;5087105;28;20043;-67
2022/10/20 11:35:06;;;;;;;14.80;5.28;;;;;;;21.49;68.03;100471.56;5086825;28;20115;-66
2022/10/20 11:37:42;;;;;;;7.68;4.03;;;;;;;21.34;67.19;100463.47;5073786;28;20147;-67